Time;durP1;ratioP1;P1;durP2;ratioP2;P2;SDS_P1;SDS_P2;PMS_P1;PMS_P2;Temp;Humidity;BMP_temperature;BMP_pressure;BME280_temperature;BME280_humidity;BME280_pressure;Samples;Min_cycle;Max_cycle;Signal;HPM_P1;HPM_P2
2023/11/16 00:01:09;;;;;;;10.20;2.47;;;;;;;;;;4988665;28;20031;-69
2023/11/16 00:03:37;;;;;;;6.53;2.10;;;;;;;;;;4988302;28;20022;-68
2023/11/16 00:06:02;;;;;;;6.07;2.15;;;;;;;;;;4992323;28;20040;-68
2023/11/16 00:08:29;;;;;;;7.65;2.55;;;;;;;;;;4979950;28;20018;-68
2023/11/16 00:10:56;;;;;;;4.25;2.00;;;;;;;;;;4992360;28;20109;-69
2023/11/16 00:13:22;;;;;;;6.57;1.90;;;;;;;;;;5016561;28;20026;-68
2023/11/16 00:15:47;;;;;;;7.53;2.00;;;;;;;;;;4994599;28;20105;-68
2023/11/16 00:18:13;;;;;;;6.85;1.98;;;;;;;;;;4985408;28;20110;-69
2023/11/16 00:20:39;;;;;;;3.03;1.80;;;;;;;;;;4990026;28;20030;-69
2023/11/16 00:23:04;;;;;;;4.97;2.13;;;;;;;;;;4995836;28;20029;-68
2023/11/16 00:25:31;;;;;;;5.18;2.05;;;;;;;;;;4997675;28;20557;-68
2023/11/16 00:27:59;;;;;;;6.45;2.25;;;;;;;;;;4995010;28;20026;-69
2023/11/16 00:30:24;;;;;;;4.60;2.03;;;;;;;;;;5008694;28;20052;-68
2023/11/16 00:32:49;;;;;;;4.25;2.28;;;;;;;;;;5000652;28;20030;-69
2023/11/16 00:35:15;;;;;;;5.45;3.13;;;;;;;;;;4987970;28;20034;-69
2023/11/16 00:37:41;;;;;;;13.82;4.10;;;;;;;;;;4997495;28;20018;-68
2023/11/16 00:40:07;;;;;;;5.20;3.80;;;;;;;;;;5014445;28;20506;-68
2023/11/16 00:42:35;;;;;;;9.30;3.75;;;;;;;;;;5004557;28;20038;-68
2023/11/16 00:45:00;;;;;;;4.63;3.30;;;;;;;;;;4981249;28;20034;-68
2023/11/16 00:47:25;;;;;;;3.58;2.80;;;;;;;;;;4983291;28;20114;-68
2023/11/16 00:49:51;;;;;;;3.97;3.05;;;;;;;;;;5003667;28;20030;-68
2023/11/16 00:52:19;;;;;;;3.53;2.70;;;;;;;;;;4991168;28;20035;-69
2023/11/16 00:54:48;;;;;;;4.60;2.25;;;;;;;;;;4982367;28;20037;-68
2023/11/16 00:57:14;;;;;;;2.88;2.13;;;;;;;;;;4983849;28;20140;-68
2023/11/16 00:59:41;;;;;;;3.95;2.85;;;;;;;;;;5006831;28;20022;-68
2023/11/16 01:02:08;;;;;;;2.53;2.28;;;;;;;;;;4976438;28;20491;-68
2023/11/16 01:04:34;;;;;;;1.85;1.52;;;;;;;;;;4990373;28;20034;-68
2023/11/16 01:07:00;;;;;;;2.17;1.98;;;;;;;;;;5000679;28;20036;-68
2023/11/16 01:09:25;;;;;;;3.70;1.52;;;;;;;;;;5015305;28;20372;-68
2023/11/16 01:11:50;;;;;;;2.63;2.20;;;;;;;;;;5013495;28;20092;-68
2023/11/16 01:14:16;;;;;;;3.42;2.85;;;;;;;;;;4982022;28;20033;-68
2023/11/16 01:16:45;;;;;;;3.10;2.30;;;;;;;;;;4987742;28;20410;-68
2023/11/16 01:19:16;;;;;;;3.42;2.17;;;;;;;;;;4981597;28;20412;-68
2023/11/16 01:21:44;;;;;;;3.97;3.00;;;;;;;;;;4978765;28;20037;-68
2023/11/16 01:24:10;;;;;;;4.18;2.95;;;;;;;;;;4988939;28;20095;-68
2023/11/16 01:26:39;;;;;;;3.25;2.65;;;;;;;;;;5010359;28;20495;-68
2023/11/16 01:29:08;;;;;;;3.95;2.03;;;;;;;;;;4985482;28;20462;-68
2023/11/16 01:31:34;;;;;;;3.25;2.65;;;;;;;;;;4991087;28;20030;-68
2023/11/16 01:33:59;;;;;;;3.25;2.40;;;;;;;;;;4991509;28;20017;-68
2023/11/16 01:36:25;;;;;;;4.28;2.20;;;;;;;;;;5014327;28;20475;-68
2023/11/16 01:38:50;;;;;;;4.10;2.83;;;;;;;;;;5014454;28;20091;-68
2023/11/16 01:41:16;;;;;;;3.97;2.63;;;;;;;;;;5013363;28;20030;-68
2023/11/16 01:43:42;;;;;;;4.82;2.75;;;;;;;;;;4997403;28;20027;-68
2023/11/16 01:46:07;;;;;;;3.35;2.72;;;;;;;;;;4987861;28;20026;-68
2023/11/16 01:48:34;;;;;;;3.60;3.13;;;;;;;;;;4994934;28;20022;-68
2023/11/16 01:51:06;;;;;;;5.45;3.08;;;;;;;;;;5022768;28;20036;-68
2023/11/16 01:53:34;;;;;;;4.30;3.05;;;;;;;;;;5034859;23;20038;-71
2023/11/16 01:55:59;;;;;;;4.78;3.80;;;;;;;;;;5013712;28;20083;-70
2023/11/16 01:58:25;;;;;;;3.67;2.50;;;;;;;;;;5014109;28;20487;-70
2023/11/16 02:00:51;;;;;;;4.05;3.08;;;;;;;;;;5007480;28;20031;-70
2023/11/16 02:03:16;;;;;;;5.28;3.45;;;;;;;;;;5001128;28;20033;-70
2023/11/16 02:05:42;;;;;;;5.88;3.42;;;;;;;;;;5001046;28;20026;-71
2023/11/16 02:08:10;;;;;;;4.00;3.38;;;;;;;;;;4994384;28;20034;-70
2023/11/16 02:10:39;;;;;;;4.55;3.58;;;;;;;;;;4998412;28;20052;-71
2023/11/16 02:13:26;;;;;;;4.07;2.25;;;;;;;;;;4996281;28;20367;-70
2023/11/16 02:15:56;;;;;;;3.90;2.85;;;;;;;;;;5028303;28;20119;-70
2023/11/16 02:18:22;;;;;;;3.20;2.38;;;;;;;;;;5011392;28;20075;-71
2023/11/16 02:20:48;;;;;;;4.10;3.05;;;;;;;;;;5024437;28;20029;-70
2023/11/16 02:23:19;;;;;;;4.65;3.85;;;;;;;;;;5011960;28;20483;-70
2023/11/16 02:25:46;;;;;;;3.90;3.45;;;;;;;;;;5020790;28;20161;-71
2023/11/16 02:28:12;;;;;;;5.18;3.10;;;;;;;;;;5013770;28;20052;-70
2023/11/16 02:30:37;;;;;;;3.30;2.63;;;;;;;;;;5012310;28;20124;-70
2023/11/16 02:33:04;;;;;;;4.55;3.15;;;;;;;;;;5013093;28;20025;-71
2023/11/16 02:35:29;;;;;;;4.10;3.42;;;;;;;;;;5016262;28;20033;-71
2023/11/16 02:37:55;;;;;;;7.13;3.08;;;;;;;;;;5008858;28;20373;-70
2023/11/16 02:40:20;;;;;;;5.40;3.60;;;;;;;;;;4993504;28;20025;-70
2023/11/16 02:42:47;;;;;;;4.30;3.72;;;;;;;;;;4993881;28;20014;-70
2023/11/16 02:45:13;;;;;;;5.20;3.38;;;;;;;;;;5004135;28;20038;-71
2023/11/16 02:47:38;;;;;;;5.72;3.28;;;;;;;;;;5013570;28;20029;-70
2023/11/16 02:50:04;;;;;;;3.72;2.35;;;;;;;;;;5008780;28;20445;-70
2023/11/16 02:52:30;;;;;;;4.32;3.47;;;;;;;;;;5008606;28;20085;-70
2023/11/16 02:54:55;;;;;;;4.95;3.03;;;;;;;;;;4993638;28;20034;-70
2023/11/16 02:57:21;;;;;;;4.38;2.92;;;;;;;;;;4993781;28;20081;-70
2023/11/16 02:59:47;;;;;;;4.70;2.72;;;;;;;;;;4993787;28;20050;-70
2023/11/16 03:02:14;;;;;;;2.53;2.33;;;;;;;;;;4992891;28;20480;-71
2023/11/16 03:04:40;;;;;;;3.65;2.90;;;;;;;;;;5012607;28;20025;-70
2023/11/16 03:07:05;;;;;;;3.97;2.72;;;;;;;;;;5011957;28;20030;-70
2023/11/16 03:09:32;;;;;;;3.30;2.40;;;;;;;;;;5012953;28;20033;-70
2023/11/16 03:11:57;;;;;;;2.45;2.22;;;;;;;;;;5027694;28;20089;-71
2023/11/16 03:14:23;;;;;;;2.75;2.25;;;;;;;;;;5003688;28;20480;-70
2023/11/16 03:16:55;;;;;;;4.35;3.03;;;;;;;;;;5003960;28;20034;-70
2023/11/16 03:19:21;;;;;;;2.90;2.58;;;;;;;;;;5015900;28;20025;-70
2023/11/16 03:21:46;;;;;;;1.80;1.40;;;;;;;;;;5014094;28;20380;-70
2023/11/16 03:24:12;;;;;;;3.20;2.72;;;;;;;;;;5000692;28;20030;-70
2023/11/16 03:26:38;;;;;;;2.53;2.05;;;;;;;;;;4997000;28;20081;-70
2023/11/16 03:29:04;;;;;;;3.28;2.38;;;;;;;;;;5002855;28;20034;-70
2023/11/16 03:31:30;;;;;;;6.93;2.70;;;;;;;;;;5012121;28;20034;-70
2023/11/16 03:33:55;;;;;;;3.30;2.38;;;;;;;;;;4997812;28;20030;-71
2023/11/16 03:36:20;;;;;;;2.85;2.50;;;;;;;;;;5001671;28;20114;-70
2023/11/16 03:38:48;;;;;;;3.75;2.00;;;;;;;;;;4996669;28;20014;-70
2023/11/16 03:41:14;;;;;;;2.75;2.45;;;;;;;;;;5003447;28;20032;-70
2023/11/16 03:43:40;;;;;;;4.07;2.53;;;;;;;;;;5000155;28;20096;-70
2023/11/16 03:46:08;;;;;;;3.08;2.35;;;;;;;;;;5015955;28;20026;-70
2023/11/16 03:48:34;;;;;;;5.28;3.20;;;;;;;;;;5016686;28;20022;-70
2023/11/16 03:50:59;;;;;;;10.38;3.00;;;;;;;;;;5016424;28;20029;-70
2023/11/16 03:53:24;;;;;;;3.17;2.17;;;;;;;;;;5016021;28;20430;-70
2023/11/16 03:55:51;;;;;;;6.20;3.33;;;;;;;;;;5016257;28;20034;-70
2023/11/16 03:58:16;;;;;;;5.82;2.70;;;;;;;;;;5031350;28;20036;-70
2023/11/16 04:00:41;;;;;;;4.90;2.45;;;;;;;;;;5015813;28;20038;-70
2023/11/16 04:03:07;;;;;;;7.13;3.67;;;;;;;;;;5015787;28;20026;-70
2023/11/16 04:05:33;;;;;;;6.40;3.85;;;;;;;;;;5014865;28;20414;-70
2023/11/16 04:07:59;;;;;;;5.20;3.53;;;;;;;;;;5015901;28;20037;-70
2023/11/16 04:10:24;;;;;;;5.75;3.53;;;;;;;;;;5015660;28;20030;-70
2023/11/16 04:12:49;;;;;;;4.22;2.28;;;;;;;;;;5015663;28;20473;-70
2023/11/16 04:15:15;;;;;;;4.57;2.97;;;;;;;;;;5015056;28;20037;-70
2023/11/16 04:17:40;;;;;;;4.35;3.05;;;;;;;;;;5013513;28;20014;-70
2023/11/16 04:20:09;;;;;;;3.63;3.00;;;;;;;;;;4998785;28;20052;-70
2023/11/16 04:22:39;;;;;;;4.07;2.95;;;;;;;;;;4996200;28;20022;-70
2023/11/16 04:25:11;;;;;;;4.13;3.67;;;;;;;;;;5010117;28;20034;-70
2023/11/16 04:27:37;;;;;;;3.20;2.90;;;;;;;;;;5015030;28;20030;-70
2023/11/16 04:30:04;;;;;;;2.65;2.17;;;;;;;;;;5001942;28;20041;-70
2023/11/16 04:32:29;;;;;;;4.95;2.00;;;;;;;;;;5022983;28;20394;-71
2023/11/16 04:34:55;;;;;;;3.55;2.72;;;;;;;;;;5006436;28;20110;-70
2023/11/16 04:37:22;;;;;;;3.38;2.72;;;;;;;;;;5013771;28;20054;-70
2023/11/16 04:39:47;;;;;;;3.72;2.92;;;;;;;;;;5015470;28;20026;-70
2023/11/16 04:42:12;;;;;;;3.40;3.10;;;;;;;;;;5013193;28;20490;-70
2023/11/16 04:44:37;;;;;;;4.05;3.08;;;;;;;;;;5021836;28;20084;-70
2023/11/16 04:47:05;;;;;;;3.65;2.97;;;;;;;;;;4995962;28;20060;-70
2023/11/16 04:49:30;;;;;;;3.45;2.22;;;;;;;;;;4995557;28;20109;-70
2023/11/16 04:51:57;;;;;;;4.05;3.42;;;;;;;;;;4999359;28;20025;-70
2023/11/16 04:54:22;;;;;;;3.35;2.90;;;;;;;;;;5015699;28;20036;-70
2023/11/16 04:56:47;;;;;;;4.30;2.80;;;;;;;;;;5015165;28;20479;-70
2023/11/16 04:59:13;;;;;;;3.55;2.17;;;;;;;;;;5013446;28;20536;-70
2023/11/16 05:01:38;;;;;;;3.70;2.80;;;;;;;;;;5015861;28;20026;-70
2023/11/16 05:04:04;;;;;;;4.55;3.38;;;;;;;;;;4993533;28;20019;-70
2023/11/16 05:06:29;;;;;;;3.85;2.38;;;;;;;;;;4994555;28;20439;-70
2023/11/16 05:08:54;;;;;;;8.02;2.85;;;;;;;;;;5008278;28;20026;-71
2023/11/16 05:11:23;;;;;;;4.00;2.67;;;;;;;;;;5015067;28;20112;-70
2023/11/16 05:13:50;;;;;;;3.28;2.60;;;;;;;;;;5008957;28;20025;-70
2023/11/16 05:16:16;;;;;;;4.38;2.85;;;;;;;;;;4994852;28;20039;-70
2023/11/16 05:18:41;;;;;;;3.65;2.78;;;;;;;;;;4995149;28;20037;-71
2023/11/16 05:21:08;;;;;;;4.45;3.08;;;;;;;;;;5015548;28;20113;-70
2023/11/16 05:23:34;;;;;;;3.33;1.83;;;;;;;;;;4994650;28;20042;-70
2023/11/16 05:25:59;;;;;;;3.83;2.95;;;;;;;;;;5016360;28;20023;-70
2023/11/16 05:28:25;;;;;;;4.20;2.78;;;;;;;;;;4994792;28;20030;-70
2023/11/16 05:30:51;;;;;;;4.90;3.28;;;;;;;;;;5009802;28;20026;-70
2023/11/16 05:33:17;;;;;;;3.55;2.20;;;;;;;;;;5001371;28;20395;-70
2023/11/16 05:35:43;;;;;;;4.20;2.55;;;;;;;;;;4994951;28;20069;-70
2023/11/16 05:38:10;;;;;;;4.40;2.13;;;;;;;;;;5008375;28;20605;-70
2023/11/16 05:40:35;;;;;;;4.18;3.00;;;;;;;;;;4994853;28;20049;-70
2023/11/16 05:43:02;;;;;;;3.45;2.78;;;;;;;;;;5000779;28;20480;-70
2023/11/16 05:45:28;;;;;;;3.78;2.08;;;;;;;;;;5002271;28;20503;-70
2023/11/16 05:47:54;;;;;;;4.22;2.85;;;;;;;;;;5013851;28;20497;-70
2023/11/16 05:50:24;;;;;;;3.67;2.67;;;;;;;;;;5012602;28;20029;-70
2023/11/16 05:52:49;;;;;;;3.30;2.42;;;;;;;;;;5014076;28;20025;-70
2023/11/16 05:55:14;;;;;;;4.32;3.08;;;;;;;;;;5012518;28;20034;-70
2023/11/16 05:57:42;;;;;;;3.55;2.92;;;;;;;;;;5013595;28;20029;-70
2023/11/16 06:00:11;;;;;;;3.90;3.05;;;;;;;;;;5014104;28;20021;-70
2023/11/16 06:02:36;;;;;;;5.55;3.30;;;;;;;;;;5002159;28;20076;-70
2023/11/16 06:05:02;;;;;;;4.60;3.10;;;;;;;;;;5009172;28;20113;-70
2023/11/16 06:07:29;;;;;;;4.30;2.80;;;;;;;;;;5005122;28;20467;-71
2023/11/16 06:09:54;;;;;;;4.40;3.75;;;;;;;;;;5011578;28;20038;-71
2023/11/16 06:12:20;;;;;;;6.00;3.00;;;;;;;;;;4996750;28;20113;-70
2023/11/16 06:14:54;;;;;;;6.50;3.17;;;;;;;;;;4999911;28;20034;-71
2023/11/16 06:17:20;;;;;;;6.03;3.45;;;;;;;;;;5009088;28;20019;-71
2023/11/16 06:19:45;;;;;;;6.30;4.22;;;;;;;;;;4993953;28;20031;-71
2023/11/16 06:22:10;;;;;;;4.35;2.60;;;;;;;;;;5006166;28;20446;-71
2023/11/16 06:24:36;;;;;;;5.32;3.97;;;;;;;;;;5012197;28;20026;-71
2023/11/16 06:27:03;;;;;;;5.50;2.97;;;;;;;;;;5013604;28;20446;-71
2023/11/16 06:29:28;;;;;;;6.07;4.28;;;;;;;;;;5009722;28;20117;-71
2023/11/16 06:31:53;;;;;;;5.20;3.38;;;;;;;;;;4993851;28;20038;-70
2023/11/16 06:34:19;;;;;;;6.90;4.30;;;;;;;;;;5008967;28;20054;-70
2023/11/16 06:36:44;;;;;;;5.40;3.40;;;;;;;;;;4999382;28;20071;-70
2023/11/16 06:39:09;;;;;;;6.80;3.05;;;;;;;;;;5013433;28;20391;-70
2023/11/16 06:41:36;;;;;;;4.90;3.33;;;;;;;;;;5013209;28;20033;-70
2023/11/16 06:44:05;;;;;;;7.22;3.40;;;;;;;;;;5009856;28;20029;-70
2023/11/16 06:46:32;;;;;;;5.22;3.25;;;;;;;;;;5007931;28;20022;-70
2023/11/16 06:48:57;;;;;;;6.93;3.67;;;;;;;;;;4993443;28;20488;-70
2023/11/16 06:51:23;;;;;;;5.07;3.60;;;;;;;;;;4993864;28;20045;-70
2023/11/16 06:53:48;;;;;;;5.35;3.58;;;;;;;;;;5007481;28;20053;-70
2023/11/16 06:56:14;;;;;;;4.50;2.75;;;;;;;;;;5013352;28;20476;-70
2023/11/16 06:58:40;;;;;;;3.65;2.45;;;;;;;;;;5028557;28;20439;-70
2023/11/16 07:01:06;;;;;;;4.70;3.28;;;;;;;;;;5013073;28;20048;-70
2023/11/16 07:03:32;;;;;;;4.80;3.35;;;;;;;;;;5011049;28;20025;-70
2023/11/16 07:05:57;;;;;;;3.70;2.95;;;;;;;;;;5011201;28;20026;-70
2023/11/16 07:08:22;;;;;;;3.97;3.33;;;;;;;;;;5012858;28;20026;-70
2023/11/16 07:10:48;;;;;;;3.45;2.88;;;;;;;;;;5012609;28;20096;-70
2023/11/16 07:13:15;;;;;;;5.68;3.53;;;;;;;;;;5011134;28;20017;-70
2023/11/16 07:15:48;;;;;;;6.32;3.45;;;;;;;;;;5012962;28;20030;-70
2023/11/16 07:18:13;;;;;;;4.30;3.00;;;;;;;;;;5000354;28;20126;-70
2023/11/16 07:20:40;;;;;;;4.40;2.83;;;;;;;;;;4992785;28;20062;-70
2023/11/16 07:23:05;;;;;;;5.43;3.13;;;;;;;;;;4995794;28;20037;-70
2023/11/16 07:25:32;;;;;;;6.10;4.53;;;;;;;;;;4996169;28;20539;-70
2023/11/16 07:27:58;;;;;;;4.90;2.95;;;;;;;;;;4992599;28;20376;-71
2023/11/16 07:30:24;;;;;;;3.90;2.90;;;;;;;;;;4996361;28;20031;-70
2023/11/16 07:32:50;;;;;;;6.28;3.45;;;;;;;;;;4992788;28;20026;-70
2023/11/16 07:35:15;;;;;;;5.03;3.35;;;;;;;;;;4991404;28;20089;-70
2023/11/16 07:37:44;;;;;;;4.30;3.35;;;;;;;;;;5001567;28;20157;-70
2023/11/16 07:40:13;;;;;;;5.25;3.65;;;;;;;;;;5027466;28;20037;-70
2023/11/16 07:42:41;;;;;;;5.32;3.63;;;;;;;;;;5025268;28;20184;-70
2023/11/16 07:45:15;;;;;;;3.60;3.30;;;;;;;;;;4994383;28;20552;-70
2023/11/16 07:47:42;;;;;;;4.90;2.88;;;;;;;;;;5006740;28;20026;-70
2023/11/16 07:50:11;;;;;;;4.38;2.10;;;;;;;;;;5009764;28;20391;-70
2023/11/16 07:52:43;;;;;;;4.72;3.60;;;;;;;;;;5065148;23;20010;-69
2023/11/16 07:55:21;;;;;;;3.92;3.53;;;;;;;;;;5031336;28;20119;-68
2023/11/16 07:57:48;;;;;;;5.05;3.80;;;;;;;;;;5032885;28;20100;-68
2023/11/16 08:00:22;;;;;;;3.50;3.20;;;;;;;;;;5032237;28;20026;-68
2023/11/16 08:05:31;;;;;;;5.32;4.18;;;;;;;;;;5016365;28;20033;-69
2023/11/16 08:07:58;;;;;;;3.63;3.33;;;;;;;;;;4996626;28;20030;-69
2023/11/16 08:10:27;;;;;;;4.45;3.78;;;;;;;;;;5017558;28;20037;-69
2023/11/16 08:12:53;;;;;;;4.15;3.58;;;;;;;;;;4998433;28;20027;-68
2023/11/16 08:15:23;;;;;;;3.22;2.78;;;;;;;;;;5027265;28;20037;-68
2023/11/16 08:17:52;;;;;;;7.93;4.55;;;;;;;;;;5012402;28;20022;-68
2023/11/16 08:20:22;;;;;;;4.07;2.63;;;;;;;;;;5016034;28;20029;-69
2023/11/16 08:22:47;;;;;;;5.70;2.58;;;;;;;;;;5015910;28;20057;-69
2023/11/16 08:25:14;;;;;;;3.63;3.10;;;;;;;;;;5014733;28;20030;-69
2023/11/16 08:27:39;;;;;;;6.55;3.17;;;;;;;;;;5014079;28;20033;-69
2023/11/16 08:30:08;;;;;;;3.95;2.75;;;;;;;;;;5021561;28;20022;-69
2023/11/16 08:32:33;;;;;;;3.22;2.55;;;;;;;;;;5034348;28;20026;-69
2023/11/16 08:34:59;;;;;;;3.15;2.42;;;;;;;;;;5034859;28;20031;-68
2023/11/16 08:37:25;;;;;;;5.75;3.88;;;;;;;;;;5035255;28;20025;-69
2023/11/16 08:39:51;;;;;;;4.07;2.90;;;;;;;;;;5050729;28;20029;-69
2023/11/16 08:42:17;;;;;;;3.88;2.78;;;;;;;;;;5035120;28;20028;-69
2023/11/16 08:44:44;;;;;;;3.38;2.90;;;;;;;;;;5008252;28;20032;-69
2023/11/16 08:47:14;;;;;;;5.45;3.10;;;;;;;;;;5021505;28;20029;-68
2023/11/16 08:49:41;;;;;;;2.65;1.98;;;;;;;;;;5019226;28;20407;-68
2023/11/16 08:52:07;;;;;;;5.13;3.15;;;;;;;;;;5029503;28;20044;-69
2023/11/16 08:54:33;;;;;;;4.82;3.50;;;;;;;;;;5034326;28;20032;-69
2023/11/16 08:56:58;;;;;;;5.15;3.15;;;;;;;;;;5034059;28;20029;-68
2023/11/16 08:59:24;;;;;;;3.10;2.72;;;;;;;;;;5029863;28;20026;-68
2023/11/16 09:01:49;;;;;;;6.93;3.08;;;;;;;;;;5000023;28;20026;-69
2023/11/16 09:04:15;;;;;;;4.57;3.22;;;;;;;;;;5010780;28;20014;-68
2023/11/16 09:06:44;;;;;;;9.63;5.22;;;;;;;;;;4996570;28;20038;-68
2023/11/16 09:09:33;;;;;;;19.13;10.30;;;;;;;;;;4994346;28;20441;-69
2023/11/16 09:11:54;;;;;;;9.32;5.72;;;;;;;;;;4995697;28;20500;-69
2023/11/16 09:14:20;;;;;;;10.73;5.25;;;;;;;;;;5002267;28;20042;-69
2023/11/16 09:16:45;;;;;;;6.78;3.28;;;;;;;;;;4994799;28;20477;-69
2023/11/16 09:19:11;;;;;;;6.25;4.10;;;;;;;;;;4997893;28;20026;-68
2023/11/16 09:21:39;;;;;;;5.53;3.55;;;;;;;;;;5013542;28;20029;-68
2023/11/16 09:24:05;;;;;;;5.47;3.90;;;;;;;;;;5014813;28;20084;-68
2023/11/16 09:26:33;;;;;;;12.70;5.35;;;;;;;;;;5014762;28;20064;-68
2023/11/16 09:28:59;;;;;;;5.15;4.05;;;;;;;;;;5016145;28;20022;-69
2023/11/16 09:31:24;;;;;;;4.43;4.03;;;;;;;;;;5014125;28;20021;-68
2023/11/16 09:33:51;;;;;;;4.80;3.67;;;;;;;;;;5029526;28;20033;-68
2023/11/16 09:36:17;;;;;;;3.70;2.20;;;;;;;;;;5014831;28;20372;-68
2023/11/16 09:38:44;;;;;;;5.18;3.38;;;;;;;;;;5013406;28;20030;-68
2023/11/16 09:41:23;;;;;;;6.15;2.67;;;;;;;;;;5014695;28;20537;-68
2023/11/16 09:43:51;;;;;;;5.47;2.55;;;;;;;;;;5029805;28;20097;-68
2023/11/16 09:46:19;;;;;;;6.55;3.60;;;;;;;;;;5014112;28;20025;-68
2023/11/16 09:48:46;;;;;;;4.30;2.85;;;;;;;;;;5030069;28;20029;-68
2023/11/16 09:51:12;;;;;;;3.90;2.45;;;;;;;;;;5029635;28;20072;-68
2023/11/16 09:53:39;;;;;;;3.92;3.35;;;;;;;;;;5029524;28;20549;-68
2023/11/16 09:56:05;;;;;;;3.90;2.90;;;;;;;;;;5012930;28;20034;-68
2023/11/16 09:58:36;;;;;;;4.20;2.58;;;;;;;;;;5014801;28;20499;-68
2023/11/16 10:01:05;;;;;;;2.97;2.53;;;;;;;;;;5014647;28;20037;-68
2023/11/16 10:03:34;;;;;;;3.97;2.80;;;;;;;;;;5029287;28;20026;-68
2023/11/16 10:06:01;;;;;;;4.07;2.58;;;;;;;;;;5012717;28;20029;-68
2023/11/16 10:08:28;;;;;;;2.80;2.40;;;;;;;;;;5014608;28;20021;-68
2023/11/16 10:10:55;;;;;;;4.03;2.60;;;;;;;;;;5014428;28;20088;-68
2023/11/16 10:13:22;;;;;;;2.95;2.47;;;;;;;;;;5028811;28;20104;-68
2023/11/16 10:15:48;;;;;;;3.17;2.25;;;;;;;;;;5013253;28;20034;-68
2023/11/16 10:18:14;;;;;;;3.35;1.95;;;;;;;;;;5014161;28;20423;-68
2023/11/16 10:20:41;;;;;;;3.00;2.25;;;;;;;;;;5014123;28;20030;-68
2023/11/16 10:23:07;;;;;;;3.53;2.92;;;;;;;;;;5029128;28;20080;-68
2023/11/16 10:25:35;;;;;;;3.15;2.25;;;;;;;;;;5014062;28;20033;-68
2023/11/16 10:28:02;;;;;;;5.22;2.67;;;;;;;;;;5012292;28;20095;-68
2023/11/16 10:30:28;;;;;;;3.28;2.67;;;;;;;;;;5029118;28;20052;-68
2023/11/16 10:32:53;;;;;;;2.28;1.70;;;;;;;;;;5029088;28;20460;-68
2023/11/16 10:35:18;;;;;;;3.50;2.35;;;;;;;;;;5014712;28;20475;-68
2023/11/16 10:37:48;;;;;;;2.95;2.28;;;;;;;;;;5014131;28;20057;-68
2023/11/16 10:40:13;;;;;;;2.80;2.42;;;;;;;;;;5013218;28;20044;-69
2023/11/16 10:42:42;;;;;;;2.90;2.25;;;;;;;;;;5013524;28;20071;-68
2023/11/16 10:45:14;;;;;;;3.15;2.45;;;;;;;;;;5029294;28;20480;-68
2023/11/16 10:47:43;;;;;;;2.90;2.70;;;;;;;;;;5012588;28;20034;-68
2023/11/16 10:50:15;;;;;;;3.28;2.50;;;;;;;;;;5014054;28;20018;-68
2023/11/16 10:52:42;;;;;;;;;;;;;;;;;;5013980;28;20057;-68
2023/11/16 10:55:28;;;;;;;2.90;2.60;;;;;;;;;;5012058;28;20004;-68
2023/11/16 10:58:00;;;;;;;2.70;2.30;;;;;;;;;;5012492;28;20109;-69
2023/11/16 11:00:26;;;;;;;2.92;1.70;;;;;;;;;;5029168;28;20391;-68
2023/11/16 11:02:52;;;;;;;4.40;2.78;;;;;;;;;;5029074;28;20014;-69
2023/11/16 11:05:19;;;;;;;2.88;2.50;;;;;;;;;;5028781;28;20029;-69
2023/11/16 11:07:49;;;;;;;4.18;2.50;;;;;;;;;;5013127;28;20022;-68
2023/11/16 11:10:15;;;;;;;3.78;1.63;;;;;;;;;;5026935;28;20380;-69
2023/11/16 11:12:46;;;;;;;3.25;2.17;;;;;;;;;;5005265;28;20033;-69
2023/11/16 11:15:29;;;;;;;2.88;2.40;;;;;;;;;;5004379;28;20034;-68
2023/11/16 11:18:00;;;;;;;4.43;1.98;;;;;;;;;;5002226;28;20364;-68
2023/11/16 11:20:38;;;;;;;4.15;2.10;;;;;;;;;;5011218;28;20092;-68
2023/11/16 11:23:21;;;;;;;3.25;2.38;;;;;;;;;;5017882;28;20109;-68
2023/11/16 11:25:49;;;;;;;3.88;2.17;;;;;;;;;;5004146;28;20026;-68
2023/11/16 11:28:15;;;;;;;3.17;2.30;;;;;;;;;;5005981;28;20068;-68
2023/11/16 11:31:10;;;;;;;3.00;2.35;;;;;;;;;;5006570;28;20053;-68
2023/11/16 11:33:42;;;;;;;3.38;2.33;;;;;;;;;;5004498;28;20030;-70
2023/11/16 11:36:11;;;;;;;;;;;;;;;;;;5021991;28;20045;-68
2023/11/16 11:38:38;;;;;;;2.95;2.10;;;;;;;;;;5016215;28;19913;-68
2023/11/16 11:41:09;;;;;;;1.95;1.63;;;;;;;;;;5025661;28;20125;-69
2023/11/16 11:43:38;;;;;;;2.20;2.00;;;;;;;;;;5022296;28;20021;-69
2023/11/16 11:46:10;;;;;;;4.95;1.70;;;;;;;;;;5003893;28;20034;-69
2023/11/16 11:48:36;;;;;;;2.53;1.90;;;;;;;;;;5004539;28;20061;-69
2023/11/16 11:51:08;;;;;;;2.00;1.80;;;;;;;;;;5009519;28;20064;-68
2023/11/16 11:53:33;;;;;;;3.88;2.22;;;;;;;;;;5024576;28;20134;-69
2023/11/16 11:56:00;;;;;;;2.08;1.80;;;;;;;;;;5021607;28;20067;-69
2023/11/16 11:58:26;;;;;;;4.72;2.42;;;;;;;;;;5005396;28;20072;-69
2023/11/16 12:00:52;;;;;;;2.13;1.40;;;;;;;;;;5022158;28;20389;-69
2023/11/16 12:03:18;;;;;;;1.95;1.80;;;;;;;;;;5012878;28;20025;-69
2023/11/16 12:05:45;;;;;;;2.60;1.83;;;;;;;;;;5028185;28;20115;-68
2023/11/16 12:08:11;;;;;;;2.83;1.63;;;;;;;;;;5035628;28;20079;-69
2023/11/16 12:10:37;;;;;;;2.72;2.33;;;;;;;;;;5034816;28;20025;-69
2023/11/16 12:13:04;;;;;;;2.67;1.20;;;;;;;;;;5035785;28;20401;-69
2023/11/16 12:15:29;;;;;;;2.30;2.08;;;;;;;;;;5034415;28;20036;-69
2023/11/16 12:17:58;;;;;;;2.30;1.55;;;;;;;;;;5033830;28;20104;-67
2023/11/16 12:20:23;;;;;;;2.85;2.58;;;;;;;;;;5035840;28;20498;-68
2023/11/16 12:22:52;;;;;;;4.22;2.03;;;;;;;;;;5034407;28;20056;-68
2023/11/16 12:25:20;;;;;;;2.25;2.05;;;;;;;;;;5034218;28;20033;-68
2023/11/16 12:27:46;;;;;;;1.77;1.67;;;;;;;;;;5034400;28;20045;-68
2023/11/16 12:30:17;;;;;;;1.92;1.70;;;;;;;;;;5035227;28;20029;-69
2023/11/16 12:32:43;;;;;;;2.25;2.05;;;;;;;;;;5034237;28;20024;-68
2023/11/16 12:35:11;;;;;;;3.40;1.50;;;;;;;;;;5035167;28;20439;-68
2023/11/16 12:37:37;;;;;;;4.68;2.38;;;;;;;;;;5035749;28;20026;-68
2023/11/16 12:40:09;;;;;;;2.83;2.63;;;;;;;;;;5034813;28;20112;-68
2023/11/16 12:42:35;;;;;;;2.35;1.88;;;;;;;;;;5035808;28;20097;-68
2023/11/16 12:45:00;;;;;;;3.00;2.00;;;;;;;;;;5033822;28;20060;-68
2023/11/16 12:47:25;;;;;;;2.40;2.00;;;;;;;;;;5035024;28;20017;-68
2023/11/16 12:49:54;;;;;;;1.92;1.48;;;;;;;;;;5034755;28;20485;-68
2023/11/16 12:52:21;;;;;;;2.85;2.25;;;;;;;;;;5031221;28;20104;-69
2023/11/16 12:54:48;;;;;;;5.75;3.17;;;;;;;;;;5008426;28;20030;-68
2023/11/16 12:57:13;;;;;;;3.10;2.72;;;;;;;;;;4997375;28;20260;-68
2023/11/16 12:59:40;;;;;;;3.38;1.60;;;;;;;;;;4999549;28;20109;-68
2023/11/16 13:02:05;;;;;;;3.30;2.28;;;;;;;;;;5015333;28;20101;-68
2023/11/16 13:04:31;;;;;;;2.20;1.92;;;;;;;;;;5011129;28;20146;-68
2023/11/16 13:06:57;;;;;;;3.05;2.45;;;;;;;;;;5003287;28;20022;-68
2023/11/16 13:09:23;;;;;;;5.07;2.17;;;;;;;;;;4996398;28;20049;-68
2023/11/16 13:11:48;;;;;;;4.40;2.67;;;;;;;;;;4982530;28;20026;-68
2023/11/16 13:14:13;;;;;;;5.97;2.67;;;;;;;;;;5021162;28;20029;-68
2023/11/16 13:16:39;;;;;;;4.35;3.50;;;;;;;;;;5035197;28;20540;-68
2023/11/16 13:19:06;;;;;;;3.30;2.00;;;;;;;;;;5034575;28;20023;-68
2023/11/16 13:21:32;;;;;;;3.30;2.25;;;;;;;;;;5035158;28;20033;-68
2023/11/16 13:23:58;;;;;;;3.00;2.33;;;;;;;;;;5019595;28;20028;-68
2023/11/16 13:26:23;;;;;;;3.65;1.90;;;;;;;;;;5030253;28;20112;-68
2023/11/16 13:28:49;;;;;;;5.70;3.17;;;;;;;;;;5042091;28;20533;-68
2023/11/16 13:31:14;;;;;;;3.50;2.17;;;;;;;;;;5034552;28;20055;-69
2023/11/16 13:33:39;;;;;;;2.80;2.10;;;;;;;;;;5025389;28;20022;-68
2023/11/16 13:36:05;;;;;;;3.95;2.63;;;;;;;;;;5014227;28;20030;-68
2023/11/16 13:38:32;;;;;;;3.20;2.40;;;;;;;;;;5028823;28;20087;-68
2023/11/16 13:41:00;;;;;;;5.00;2.15;;;;;;;;;;5034392;28;20026;-68
2023/11/16 13:43:25;;;;;;;5.53;2.63;;;;;;;;;;5032596;28;20430;-68
2023/11/16 13:45:50;;;;;;;3.60;2.65;;;;;;;;;;5034135;28;20057;-68
2023/11/16 13:48:17;;;;;;;3.10;2.30;;;;;;;;;;4998860;28;20041;-68
2023/11/16 13:50:43;;;;;;;2.40;1.70;;;;;;;;;;5018781;28;20440;-68
2023/11/16 13:53:09;;;;;;;1.85;1.75;;;;;;;;;;5005927;28;20027;-68
2023/11/16 13:55:35;;;;;;;6.88;2.60;;;;;;;;;;5001190;28;20038;-69
2023/11/16 13:58:00;;;;;;;4.15;2.55;;;;;;;;;;5012684;28;20041;-68
2023/11/16 14:00:28;;;;;;;2.72;2.47;;;;;;;;;;5020774;28;20025;-68
2023/11/16 14:02:53;;;;;;;3.30;2.60;;;;;;;;;;5034555;28;20060;-68
2023/11/16 14:05:18;;;;;;;3.60;2.47;;;;;;;;;;5031760;28;20483;-68
2023/11/16 14:07:44;;;;;;;3.45;2.45;;;;;;;;;;5034074;28;20025;-68
2023/11/16 14:10:12;;;;;;;3.40;2.78;;;;;;;;;;5034211;28;20021;-68
2023/11/16 14:12:38;;;;;;;11.52;3.72;;;;;;;;;;5033956;28;20040;-68
2023/11/16 14:15:07;;;;;;;2.95;2.20;;;;;;;;;;5032409;28;20398;-68
2023/11/16 14:17:33;;;;;;;3.25;2.92;;;;;;;;;;5032859;28;20025;-68
2023/11/16 14:19:58;;;;;;;4.25;2.75;;;;;;;;;;5033316;28;20032;-68
2023/11/16 14:22:23;;;;;;;4.15;2.75;;;;;;;;;;5033477;28;20475;-68
2023/11/16 14:24:48;;;;;;;6.13;3.17;;;;;;;;;;5033742;28;20017;-68
2023/11/16 14:27:14;;;;;;;13.00;4.72;;;;;;;;;;5033026;28;20028;-68
2023/11/16 14:29:39;;;;;;;14.15;6.63;;;;;;;;;;5032543;28;20433;-68
2023/11/16 14:32:04;;;;;;;6.45;3.17;;;;;;;;;;5033273;28;20544;-69
2023/11/16 14:34:30;;;;;;;4.68;2.80;;;;;;;;;;5031793;28;20364;-68
2023/11/16 14:36:56;;;;;;;4.35;3.38;;;;;;;;;;5033617;28;20084;-68
2023/11/16 14:39:21;;;;;;;5.10;3.97;;;;;;;;;;5033910;28;20497;-68
2023/11/16 14:41:47;;;;;;;4.60;2.42;;;;;;;;;;5033084;28;20475;-68
2023/11/16 14:44:17;;;;;;;5.47;3.45;;;;;;;;;;5032982;28;20021;-68